Time;durP1;ratioP1;P1;durP2;ratioP2;P2;SDS_P1;SDS_P2;PMS_P1;PMS_P2;Temp;Humidity;BMP_temperature;BMP_pressure;BME280_temperature;BME280_humidity;BME280_pressure;Samples;Min_cycle;Max_cycle;Signal;HPM_P1;HPM_P2
2021/12/31 00:00:31;;;;;;;39.56;17.75;;;;;;;;;;362319;144;859512;-64
2021/12/31 00:01:33;;;;;;;40.54;17.65;;;;;;;;;;363222;145;864896;-64
2021/12/31 00:02:34;;;;;;;50.41;24.41;;;;;;;;;;363946;144;866070;-64
2021/12/31 00:03:36;;;;;;;47.01;22.10;;;;;;;;;;364258;146;865259;-64
2021/12/31 00:04:37;;;;;;;46.20;22.66;;;;;;;;;;366279;146;860802;-64
2021/12/31 00:05:39;;;;;;;48.20;23.52;;;;;;;;;;365887;143;861813;-64
2021/12/31 00:06:44;;;;;;;50.31;23.43;;;;;;;;;;364163;144;859477;-65
2021/12/31 00:07:47;;;;;;;46.36;22.85;;;;;;;;;;363972;146;864975;-64
2021/12/31 00:08:48;;;;;;;48.95;22.97;;;;;;;;;;361859;147;857171;-64
2021/12/31 00:09:50;;;;;;;51.19;23.95;;;;;;;;;;362865;145;858807;-64
2021/12/31 00:10:56;;;;;;;46.46;20.29;;;;;;;;;;363773;146;858992;-64
2021/12/31 00:11:55;;;;;;;52.96;22.46;;;;;;;;;;361704;146;865104;-64
2021/12/31 00:12:56;;;;;;;43.82;20.35;;;;;;;;;;360848;147;865055;-64
2021/12/31 00:13:58;;;;;;;49.97;23.09;;;;;;;;;;363531;144;858233;-64
2021/12/31 00:15:00;;;;;;;47.78;23.19;;;;;;;;;;361381;146;858777;-64
2021/12/31 00:16:01;;;;;;;42.68;21.71;;;;;;;;;;354812;149;859836;-64
2021/12/31 00:17:03;;;;;;;28.86;15.79;;;;;;;;;;360831;144;860637;-64
2021/12/31 00:18:05;;;;;;;44.49;21.15;;;;;;;;;;362530;146;857224;-64
2021/12/31 00:19:06;;;;;;;38.12;18.24;;;;;;;;;;365475;144;858797;-64
2021/12/31 00:20:15;;;;;;;43.48;19.73;;;;;;;;;;363545;146;863340;-64
2021/12/31 00:21:15;;;;;;;47.43;22.33;;;;;;;;;;363975;146;865083;-64
2021/12/31 00:23:05;;;;;;;48.21;21.99;;;;;;;;;;363305;144;859336;-64
2021/12/31 00:23:24;;;;;;;42.86;20.08;;;;;;;;;;354053;146;864145;-65
2021/12/31 00:24:26;;;;;;;47.81;22.66;;;;;;;;;;363273;144;859195;-64
2021/12/31 00:25:27;;;;;;;50.43;22.07;;;;;;;;;;362778;146;856693;-64
2021/12/31 00:26:29;;;;;;;42.85;19.65;;;;;;;;;;363986;146;859313;-64
2021/12/31 00:27:30;;;;;;;43.48;20.41;;;;;;;;;;361056;146;865862;-64
2021/12/31 00:28:32;;;;;;;41.90;19.44;;;;;;;;;;364498;144;858096;-64
2021/12/31 00:29:33;;;;;;;49.71;23.86;;;;;;;;;;363120;144;859578;-64
2021/12/31 00:30:35;;;;;;;36.32;18.96;;;;;;;;;;359059;147;858148;-64
2021/12/31 00:31:37;;;;;;;46.88;22.63;;;;;;;;;;364056;146;865886;-64
2021/12/31 00:32:38;;;;;;;46.22;22.14;;;;;;;;;;362056;146;866002;-64
2021/12/31 00:33:40;;;;;;;46.76;21.96;;;;;;;;;;364596;146;866404;-64
2021/12/31 00:34:41;;;;;;;48.65;22.09;;;;;;;;;;363445;146;861150;-64
2021/12/31 00:35:43;;;;;;;40.76;19.76;;;;;;;;;;361905;146;857248;-65
2021/12/31 00:36:45;;;;;;;46.72;21.06;;;;;;;;;;362591;146;857343;-65
2021/12/31 00:37:47;;;;;;;50.77;23.76;;;;;;;;;;364098;146;864908;-65
2021/12/31 00:38:48;;;;;;;32.41;14.66;;;;;;;;;;363967;144;857216;-65
2021/12/31 00:39:50;;;;;;;55.78;25.04;;;;;;;;;;362394;145;857268;-65
2021/12/31 00:40:51;;;;;;;43.44;21.84;;;;;;;;;;363957;146;857304;-65
2021/12/31 00:41:53;;;;;;;45.20;22.28;;;;;;;;;;363358;146;865023;-65
2021/12/31 00:42:55;;;;;;;50.54;23.45;;;;;;;;;;361746;146;866823;-65
2021/12/31 00:43:56;;;;;;;48.33;22.61;;;;;;;;;;364380;144;859158;-65
2021/12/31 00:44:58;;;;;;;47.86;22.26;;;;;;;;;;365165;146;865040;-65
2021/12/31 00:46:02;;;;;;;45.05;20.29;;;;;;;;;;364409;143;859469;-65
2021/12/31 00:47:03;;;;;;;46.89;22.40;;;;;;;;;;364323;144;857418;-65
2021/12/31 00:48:04;;;;;;;42.65;20.21;;;;;;;;;;364089;146;858900;-65
2021/12/31 00:49:06;;;;;;;49.11;21.91;;;;;;;;;;362712;146;864821;-65
2021/12/31 00:50:09;;;;;;;43.09;22.89;;;;;;;;;;364078;144;859624;-65
2021/12/31 00:51:10;;;;;;;49.65;24.17;;;;;;;;;;364515;144;857275;-65
2021/12/31 00:52:12;;;;;;;35.31;18.03;;;;;;;;;;363371;147;857823;-64
2021/12/31 00:53:14;;;;;;;45.84;21.92;;;;;;;;;;363196;144;867028;-64
2021/12/31 00:54:16;;;;;;;44.08;22.68;;;;;;;;;;364112;146;857359;-64
2021/12/31 00:55:17;;;;;;;42.01;20.09;;;;;;;;;;362219;146;866435;-64
2021/12/31 00:56:20;;;;;;;42.93;21.63;;;;;;;;;;359571;146;864833;-64
2021/12/31 00:57:21;;;;;;;51.74;23.63;;;;;;;;;;362754;146;864872;-64
2021/12/31 00:58:23;;;;;;;45.48;22.84;;;;;;;;;;363633;146;864946;-64
2021/12/31 00:59:25;;;;;;;40.28;19.09;;;;;;;;;;361524;146;866732;-64
2021/12/31 01:00:27;;;;;;;36.53;16.59;;;;;;;;;;363952;145;865345;-65
2021/12/31 01:01:31;;;;;;;45.49;20.55;;;;;;;;;;362864;146;857898;-64
2021/12/31 01:02:32;;;;;;;43.69;17.74;;;;;;;;;;363414;144;857189;-64
2021/12/31 01:03:34;;;;;;;39.55;18.57;;;;;;;;;;364367;146;866610;-65
2021/12/31 01:04:35;;;;;;;45.73;22.89;;;;;;;;;;358351;144;857756;-59
2021/12/31 01:05:37;;;;;;;36.34;17.51;;;;;;;;;;350097;149;863367;-59
2021/12/31 01:06:39;;;;;;;31.64;13.81;;;;;;;;;;352325;151;863291;-59
2021/12/31 01:07:41;;;;;;;33.30;17.07;;;;;;;;;;350284;146;864980;-60
2021/12/31 01:08:42;;;;;;;40.67;20.85;;;;;;;;;;351109;149;857837;-59
2021/12/31 01:09:44;;;;;;;37.03;18.20;;;;;;;;;;352323;149;863176;-59
2021/12/31 01:10:46;;;;;;;41.47;20.11;;;;;;;;;;350559;151;864938;-59
2021/12/31 01:11:48;;;;;;;34.62;16.29;;;;;;;;;;350384;151;857192;-59
2021/12/31 01:12:50;;;;;;;46.87;21.81;;;;;;;;;;350049;151;856256;-59
2021/12/31 01:13:57;;;;;;;40.99;18.82;;;;;;;;;;351691;151;857160;-61
2021/12/31 01:15:03;;;;;;;31.32;17.49;;;;;;;;;;349312;149;857130;-59
2021/12/31 01:16:03;;;;;;;29.42;13.39;;;;;;;;;;352146;151;857796;-59
2021/12/31 01:17:08;;;;;;;44.98;22.71;;;;;;;;;;350654;151;857155;-61
2021/12/31 01:20:12;;;;;;;42.52;20.79;;;;;;;;;;349506;149;864792;-59
2021/12/31 01:21:15;;;;;;;43.13;22.29;;;;;;;;;;349064;151;865098;-59
2021/12/31 01:22:18;;;;;;;44.22;20.87;;;;;;;;;;349977;149;857327;-59
2021/12/31 01:23:20;;;;;;;39.54;19.91;;;;;;;;;;351473;151;859334;-59
2021/12/31 01:24:28;;;;;;;33.41;15.91;;;;;;;;;;351276;151;857591;-59
2021/12/31 01:25:25;;;;;;;41.31;19.79;;;;;;;;;;352359;151;864443;-60
2021/12/31 01:26:26;;;;;;;48.83;22.54;;;;;;;;;;352306;149;859428;-59
2021/12/31 01:27:28;;;;;;;37.32;16.78;;;;;;;;;;350396;151;857318;-59
2021/12/31 01:28:30;;;;;;;43.06;20.13;;;;;;;;;;348330;151;857694;-60
2021/12/31 01:29:31;;;;;;;46.75;21.79;;;;;;;;;;350251;151;864617;-59
2021/12/31 01:30:33;;;;;;;44.92;21.66;;;;;;;;;;351668;151;857251;-61
2021/12/31 01:31:34;;;;;;;30.49;14.46;;;;;;;;;;349286;151;866736;-61
2021/12/31 01:32:36;;;;;;;34.76;16.58;;;;;;;;;;350184;151;863839;-60
2021/12/31 01:33:38;;;;;;;37.82;16.71;;;;;;;;;;351478;151;858225;-61
2021/12/31 01:34:39;;;;;;;30.79;14.35;;;;;;;;;;349444;152;867380;-61
2021/12/31 01:35:41;;;;;;;41.47;19.96;;;;;;;;;;350471;153;864950;-61
2021/12/31 01:36:43;;;;;;;44.66;20.53;;;;;;;;;;350697;149;864956;-59
2021/12/31 01:37:44;;;;;;;33.41;16.61;;;;;;;;;;349432;151;864941;-59
2021/12/31 01:38:46;;;;;;;36.89;17.92;;;;;;;;;;349150;151;861948;-60
2021/12/31 01:39:48;;;;;;;38.97;18.09;;;;;;;;;;348213;149;857186;-60
2021/12/31 01:40:49;;;;;;;45.93;21.65;;;;;;;;;;350364;151;865451;-59
2021/12/31 01:41:51;;;;;;;44.89;22.37;;;;;;;;;;351245;152;859669;-59
2021/12/31 01:42:53;;;;;;;46.74;21.25;;;;;;;;;;348318;152;857755;-59
2021/12/31 01:43:54;;;;;;;40.60;19.83;;;;;;;;;;349801;149;863222;-60
2021/12/31 01:44:59;;;;;;;40.08;20.65;;;;;;;;;;349217;151;857300;-59
2021/12/31 01:46:01;;;;;;;35.99;18.52;;;;;;;;;;352008;151;864807;-59
2021/12/31 01:47:05;;;;;;;35.51;16.31;;;;;;;;;;350994;151;857440;-57
2021/12/31 01:48:09;;;;;;;43.55;19.19;;;;;;;;;;351817;151;857671;-59
2021/12/31 01:49:20;;;;;;;42.69;20.72;;;;;;;;;;351027;149;857272;-58
2021/12/31 01:50:17;;;;;;;39.49;19.98;;;;;;;;;;352212;146;857358;-58
2021/12/31 01:51:18;;;;;;;34.93;18.37;;;;;;;;;;352262;151;859829;-59
2021/12/31 01:52:20;;;;;;;36.39;17.30;;;;;;;;;;348547;151;864849;-59
2021/12/31 01:53:26;;;;;;;34.27;18.16;;;;;;;;;;350346;151;857182;-59
2021/12/31 01:54:31;;;;;;;38.30;17.76;;;;;;;;;;350946;151;857333;-59
2021/12/31 01:55:33;;;;;;;43.41;20.18;;;;;;;;;;351180;151;856299;-60
2021/12/31 01:56:34;;;;;;;33.66;17.81;;;;;;;;;;349888;151;859199;-61
2021/12/31 01:57:36;;;;;;;43.43;20.99;;;;;;;;;;348677;150;865057;-58
2021/12/31 01:58:38;;;;;;;43.69;21.71;;;;;;;;;;350547;151;866857;-58
2021/12/31 01:59:39;;;;;;;31.44;16.15;;;;;;;;;;349605;151;859295;-58
2021/12/31 02:00:41;;;;;;;37.52;18.59;;;;;;;;;;350901;152;859089;-57
2021/12/31 02:01:43;;;;;;;46.69;21.99;;;;;;;;;;351012;151;865625;-59
2021/12/31 02:02:45;;;;;;;38.14;18.29;;;;;;;;;;349541;151;867121;-57
2021/12/31 02:03:46;;;;;;;39.34;19.44;;;;;;;;;;352869;149;861935;-58
2021/12/31 02:04:48;;;;;;;28.01;14.11;;;;;;;;;;352523;151;857161;-59
2021/12/31 02:05:49;;;;;;;39.86;18.27;;;;;;;;;;354367;150;865005;-59
2021/12/31 02:06:51;;;;;;;39.20;19.63;;;;;;;;;;353866;150;859536;-59
2021/12/31 02:07:53;;;;;;;41.24;19.84;;;;;;;;;;355470;151;864699;-60
2021/12/31 02:08:55;;;;;;;35.96;17.95;;;;;;;;;;352163;149;865050;-59
2021/12/31 02:09:56;;;;;;;36.06;17.90;;;;;;;;;;351219;149;863166;-60
2021/12/31 02:10:58;;;;;;;37.00;17.31;;;;;;;;;;357678;150;857184;-60
2021/12/31 02:12:00;;;;;;;32.41;15.15;;;;;;;;;;353710;149;864490;-60
2021/12/31 02:13:01;;;;;;;35.57;15.58;;;;;;;;;;354023;149;857356;-60
2021/12/31 02:14:03;;;;;;;39.01;17.54;;;;;;;;;;352703;150;860083;-60
2021/12/31 02:15:04;;;;;;;32.77;14.88;;;;;;;;;;348448;150;857146;-60
2021/12/31 02:16:06;;;;;;;40.99;20.57;;;;;;;;;;350740;149;860954;-60
2021/12/31 02:17:09;;;;;;;34.14;16.91;;;;;;;;;;343774;154;856403;-60
2021/12/31 02:18:11;;;;;;;45.91;22.68;;;;;;;;;;347465;150;863943;-60
2021/12/31 02:19:13;;;;;;;37.95;18.76;;;;;;;;;;353412;150;857790;-59
2021/12/31 02:20:16;;;;;;;42.30;20.24;;;;;;;;;;351752;150;865516;-60
2021/12/31 02:21:20;;;;;;;28.43;14.17;;;;;;;;;;351581;152;864770;-60
2021/12/31 02:22:27;;;;;;;43.15;19.54;;;;;;;;;;352933;150;858509;-60
2021/12/31 02:23:31;;;;;;;38.29;18.86;;;;;;;;;;353506;150;865125;-60
2021/12/31 02:24:29;;;;;;;41.24;18.77;;;;;;;;;;351295;150;856124;-60
2021/12/31 02:25:31;;;;;;;29.46;15.17;;;;;;;;;;355236;150;859321;-60
2021/12/31 02:26:33;;;;;;;33.23;16.58;;;;;;;;;;351752;149;857838;-60
2021/12/31 02:27:38;;;;;;;42.97;19.01;;;;;;;;;;353628;150;857194;-60
2021/12/31 02:28:39;;;;;;;43.03;17.83;;;;;;;;;;358098;150;866614;-59
2021/12/31 02:29:41;;;;;;;43.18;19.29;;;;;;;;;;351157;150;859438;-60
2021/12/31 02:30:43;;;;;;;42.10;20.60;;;;;;;;;;351069;149;864832;-60
2021/12/31 02:31:44;;;;;;;43.13;21.11;;;;;;;;;;350643;149;857428;-59
2021/12/31 02:32:46;;;;;;;40.26;19.95;;;;;;;;;;353672;150;865484;-60
2021/12/31 02:33:49;;;;;;;36.61;18.75;;;;;;;;;;352126;149;863853;-60
2021/12/31 02:34:51;;;;;;;41.29;19.09;;;;;;;;;;352676;150;864764;-59
2021/12/31 02:35:53;;;;;;;41.83;20.83;;;;;;;;;;353021;150;865390;-59
2021/12/31 02:36:54;;;;;;;44.99;20.94;;;;;;;;;;351091;149;857122;-59
2021/12/31 02:37:56;;;;;;;32.86;17.24;;;;;;;;;;352140;149;866465;-58
2021/12/31 02:38:58;;;;;;;35.75;16.71;;;;;;;;;;345977;153;858246;-59
2021/12/31 02:40:07;;;;;;;41.83;18.56;;;;;;;;;;352402;150;865036;-59
2021/12/31 02:41:10;;;;;;;44.91;22.02;;;;;;;;;;350976;149;857475;-59
2021/12/31 02:42:11;;;;;;;44.53;20.35;;;;;;;;;;353731;150;857238;-62
2021/12/31 02:43:13;;;;;;;39.98;17.77;;;;;;;;;;351443;150;865622;-60
2021/12/31 02:44:14;;;;;;;44.71;21.46;;;;;;;;;;353117;150;857860;-61
2021/12/31 02:45:16;;;;;;;46.28;22.23;;;;;;;;;;354032;150;857728;-59
2021/12/31 02:46:18;;;;;;;49.43;22.09;;;;;;;;;;352924;150;865494;-60
2021/12/31 02:47:20;;;;;;;27.19;13.18;;;;;;;;;;355365;149;857167;-59
2021/12/31 02:48:25;;;;;;;38.89;18.79;;;;;;;;;;353944;149;865809;-60
2021/12/31 02:49:29;;;;;;;41.44;19.91;;;;;;;;;;350867;150;859040;-59
2021/12/31 02:50:34;;;;;;;41.31;19.99;;;;;;;;;;351790;150;857311;-59
2021/12/31 02:51:36;;;;;;;46.28;22.35;;;;;;;;;;352352;149;865411;-59
2021/12/31 02:52:38;;;;;;;44.35;19.82;;;;;;;;;;352323;150;857391;-59
2021/12/31 02:53:40;;;;;;;46.99;22.61;;;;;;;;;;351676;150;857216;-59
2021/12/31 02:54:43;;;;;;;42.07;19.61;;;;;;;;;;350556;149;857435;-60
2021/12/31 02:55:45;;;;;;;46.78;22.07;;;;;;;;;;351833;150;856992;-59
2021/12/31 02:56:46;;;;;;;44.03;21.16;;;;;;;;;;342997;153;865676;-60
2021/12/31 02:57:48;;;;;;;47.30;23.46;;;;;;;;;;351887;153;864957;-59
2021/12/31 02:58:50;;;;;;;46.66;22.89;;;;;;;;;;353109;150;860957;-60
2021/12/31 02:59:51;;;;;;;45.31;20.60;;;;;;;;;;350554;150;857377;-59
2021/12/31 03:00:53;;;;;;;45.14;21.52;;;;;;;;;;351472;150;857165;-59
2021/12/31 03:01:54;;;;;;;46.39;23.06;;;;;;;;;;352611;150;864931;-59
2021/12/31 03:02:56;;;;;;;49.20;22.91;;;;;;;;;;350558;151;858590;-59
2021/12/31 03:03:58;;;;;;;47.19;22.52;;;;;;;;;;346645;153;861980;-59
2021/12/31 03:05:00;;;;;;;46.95;21.39;;;;;;;;;;352070;153;856466;-60
2021/12/31 03:06:03;;;;;;;48.78;20.37;;;;;;;;;;351322;149;858159;-59
2021/12/31 03:07:05;;;;;;;48.53;22.50;;;;;;;;;;350464;150;857428;-59
2021/12/31 03:08:10;;;;;;;51.06;22.60;;;;;;;;;;352176;150;857409;-61
2021/12/31 03:09:10;;;;;;;52.06;21.17;;;;;;;;;;351820;149;857353;-59
2021/12/31 03:10:12;;;;;;;43.10;18.31;;;;;;;;;;351557;149;859156;-59
2021/12/31 03:11:14;;;;;;;47.11;20.39;;;;;;;;;;351728;150;857473;-59
2021/12/31 03:12:16;;;;;;;50.38;22.74;;;;;;;;;;352571;150;865105;-60
2021/12/31 03:13:17;;;;;;;53.18;22.69;;;;;;;;;;353650;149;857322;-60
2021/12/31 03:14:19;;;;;;;54.31;24.14;;;;;;;;;;348892;150;857261;-59
2021/12/31 03:15:20;;;;;;;50.01;22.63;;;;;;;;;;356604;150;859755;-59
2021/12/31 03:16:23;;;;;;;48.92;24.05;;;;;;;;;;354668;149;864118;-59
2021/12/31 03:17:24;;;;;;;42.39;20.72;;;;;;;;;;353609;150;858088;-60
2021/12/31 03:18:26;;;;;;;46.63;21.76;;;;;;;;;;353950;150;865409;-59
2021/12/31 03:19:28;;;;;;;47.44;23.39;;;;;;;;;;354405;151;864492;-59
2021/12/31 03:20:43;;;;;;;38.20;18.86;;;;;;;;;;352991;149;856263;-59
2021/12/31 03:21:42;;;;;;;48.52;21.96;;;;;;;;;;350359;149;857774;-60
2021/12/31 03:22:43;;;;;;;41.59;20.89;;;;;;;;;;351608;150;859129;-60
2021/12/31 03:23:45;;;;;;;49.21;22.88;;;;;;;;;;352426;149;866264;-60
2021/12/31 03:24:46;;;;;;;36.90;17.31;;;;;;;;;;353689;150;862467;-59
2021/12/31 03:25:48;;;;;;;44.77;20.44;;;;;;;;;;351849;150;859239;-59
2021/12/31 03:26:49;;;;;;;37.89;18.04;;;;;;;;;;348935;149;858255;-59
2021/12/31 03:27:51;;;;;;;49.73;22.76;;;;;;;;;;353169;150;858682;-60
2021/12/31 03:28:52;;;;;;;47.99;22.41;;;;;;;;;;350355;153;864918;-60
2021/12/31 03:29:54;;;;;;;46.25;22.37;;;;;;;;;;351372;150;865122;-60
2021/12/31 03:30:55;;;;;;;38.26;17.76;;;;;;;;;;352006;150;857997;-60
2021/12/31 03:31:57;;;;;;;36.02;17.44;;;;;;;;;;349400;150;858736;-60
2021/12/31 03:32:59;;;;;;;45.43;22.14;;;;;;;;;;339165;155;866732;-60
2021/12/31 03:34:00;;;;;;;49.90;24.21;;;;;;;;;;350621;149;862579;-60
2021/12/31 03:35:02;;;;;;;33.78;16.40;;;;;;;;;;350565;150;866048;-60
2021/12/31 03:36:04;;;;;;;50.62;22.11;;;;;;;;;;351520;150;858903;-59
2021/12/31 03:37:05;;;;;;;48.20;23.61;;;;;;;;;;350045;151;857351;-60
2021/12/31 03:38:07;;;;;;;47.20;22.34;;;;;;;;;;351560;150;866627;-58
2021/12/31 03:39:09;;;;;;;41.24;17.93;;;;;;;;;;354147;150;866946;-59
2021/12/31 03:40:11;;;;;;;50.70;23.01;;;;;;;;;;352077;150;865751;-59
2021/12/31 03:41:15;;;;;;;50.13;23.07;;;;;;;;;;351748;149;857381;-59
2021/12/31 03:42:18;;;;;;;42.91;22.16;;;;;;;;;;352978;150;858606;-60
2021/12/31 03:43:20;;;;;;;46.08;20.73;;;;;;;;;;350780;150;858488;-59
2021/12/31 03:44:21;;;;;;;47.09;21.54;;;;;;;;;;351992;151;866025;-59
2021/12/31 03:45:23;;;;;;;39.46;19.87;;;;;;;;;;352172;149;864156;-59
2021/12/31 03:46:25;;;;;;;44.92;20.49;;;;;;;;;;353098;150;857537;-57
2021/12/31 03:47:27;;;;;;;42.69;20.04;;;;;;;;;;353794;149;856947;-59
2021/12/31 03:48:28;;;;;;;38.96;18.64;;;;;;;;;;351595;150;863940;-58
2021/12/31 03:49:30;;;;;;;51.36;23.46;;;;;;;;;;351957;150;856623;-59
2021/12/31 03:50:31;;;;;;;53.77;22.86;;;;;;;;;;350651;150;858622;-59
2021/12/31 03:51:33;;;;;;;49.83;22.60;;;;;;;;;;350643;150;864920;-59
2021/12/31 03:52:38;;;;;;;52.57;24.09;;;;;;;;;;352962;150;864986;-61
2021/12/31 03:53:40;;;;;;;51.22;24.30;;;;;;;;;;352354;150;865635;-59
2021/12/31 03:54:42;;;;;;;50.93;24.35;;;;;;;;;;343326;154;857678;-59
2021/12/31 03:55:44;;;;;;;50.74;24.36;;;;;;;;;;342275;153;857238;-59
2021/12/31 03:56:47;;;;;;;49.99;24.01;;;;;;;;;;351927;150;868733;-59
2021/12/31 03:57:49;;;;;;;43.62;20.71;;;;;;;;;;351585;150;866619;-59
2021/12/31 03:58:50;;;;;;;45.11;21.48;;;;;;;;;;354224;149;857259;-59
2021/12/31 03:59:54;;;;;;;45.08;22.08;;;;;;;;;;352444;150;857131;-59
2021/12/31 04:00:55;;;;;;;50.09;23.93;;;;;;;;;;352318;149;857159;-59
2021/12/31 04:01:56;;;;;;;49.31;23.20;;;;;;;;;;354533;150;857207;-59
2021/12/31 04:03:00;;;;;;;48.32;23.82;;;;;;;;;;350325;151;866627;-59
2021/12/31 04:04:02;;;;;;;45.99;21.66;;;;;;;;;;351660;150;866709;-59
2021/12/31 04:05:04;;;;;;;47.56;23.26;;;;;;;;;;349084;152;858901;-60
2021/12/31 04:06:05;;;;;;;53.82;26.45;;;;;;;;;;352919;149;864980;-62
2021/12/31 04:07:07;;;;;;;48.18;22.19;;;;;;;;;;350701;150;860141;-60
2021/12/31 04:08:09;;;;;;;49.23;24.86;;;;;;;;;;352876;150;866701;-60
2021/12/31 04:09:10;;;;;;;47.51;22.91;;;;;;;;;;351314;150;865642;-60
2021/12/31 04:10:12;;;;;;;48.45;24.39;;;;;;;;;;352398;149;859764;-60
2021/12/31 04:11:14;;;;;;;53.25;24.93;;;;;;;;;;352002;150;858826;-60
2021/12/31 04:12:16;;;;;;;54.14;23.29;;;;;;;;;;356238;150;860225;-62
2021/12/31 04:13:17;;;;;;;49.87;23.72;;;;;;;;;;351197;150;858965;-60
2021/12/31 04:14:19;;;;;;;45.39;24.19;;;;;;;;;;352188;149;857405;-60
2021/12/31 04:15:20;;;;;;;39.57;17.34;;;;;;;;;;353671;150;864878;-61
2021/12/31 04:16:24;;;;;;;48.91;22.49;;;;;;;;;;349207;150;857270;-60
2021/12/31 04:17:25;;;;;;;50.19;24.51;;;;;;;;;;353424;149;857287;-60
2021/12/31 04:18:27;;;;;;;45.01;22.59;;;;;;;;;;351306;150;857221;-61
2021/12/31 04:19:28;;;;;;;42.67;21.91;;;;;;;;;;351191;150;857337;-60
2021/12/31 04:20:39;;;;;;;50.45;23.56;;;;;;;;;;350897;149;865928;-60
2021/12/31 04:21:39;;;;;;;47.76;23.56;;;;;;;;;;351707;150;864061;-60
2021/12/31 04:22:50;;;;;;;46.59;22.61;;;;;;;;;;349011;150;858968;-60
2021/12/31 04:23:52;;;;;;;47.17;23.99;;;;;;;;;;354493;151;857293;-60
2021/12/31 04:24:52;;;;;;;46.49;23.93;;;;;;;;;;351348;150;856393;-60
2021/12/31 04:25:55;;;;;;;47.49;22.58;;;;;;;;;;349703;150;858704;-59
2021/12/31 04:26:56;;;;;;;46.55;22.58;;;;;;;;;;355683;150;857178;-59
2021/12/31 04:27:58;;;;;;;49.41;23.96;;;;;;;;;;353255;151;857259;-60
2021/12/31 04:29:00;;;;;;;49.97;23.39;;;;;;;;;;354645;150;865978;-60
2021/12/31 04:30:01;;;;;;;50.21;24.65;;;;;;;;;;353809;150;858185;-60
2021/12/31 04:31:04;;;;;;;44.86;22.81;;;;;;;;;;355526;150;865149;-60
2021/12/31 04:32:06;;;;;;;46.89;23.64;;;;;;;;;;351824;150;861749;-59
2021/12/31 04:33:07;;;;;;;46.57;23.14;;;;;;;;;;351254;150;857996;-61
2021/12/31 04:34:09;;;;;;;51.70;24.04;;;;;;;;;;356083;150;858830;-60
2021/12/31 04:35:13;;;;;;;48.49;24.71;;;;;;;;;;351733;151;857555;-61
2021/12/31 04:36:15;;;;;;;53.26;24.29;;;;;;;;;;352563;150;857315;-61
2021/12/31 04:37:17;;;;;;;49.09;22.29;;;;;;;;;;349931;151;865894;-60
2021/12/31 04:38:18;;;;;;;48.97;24.60;;;;;;;;;;350523;149;864867;-60
2021/12/31 04:39:20;;;;;;;43.41;19.83;;;;;;;;;;352680;150;866673;-59
2021/12/31 04:40:22;;;;;;;51.86;25.03;;;;;;;;;;350367;149;862586;-57
2021/12/31 04:41:25;;;;;;;48.42;23.83;;;;;;;;;;352183;150;858008;-58
2021/12/31 04:42:26;;;;;;;51.25;23.84;;;;;;;;;;353042;149;859064;-58
2021/12/31 04:43:28;;;;;;;53.09;24.06;;;;;;;;;;353699;150;864861;-59
2021/12/31 04:44:29;;;;;;;46.49;24.06;;;;;;;;;;354409;150;858375;-60
2021/12/31 04:45:31;;;;;;;47.83;24.16;;;;;;;;;;353967;150;856987;-60
2021/12/31 04:46:32;;;;;;;49.36;23.49;;;;;;;;;;353267;150;860121;-59
2021/12/31 04:47:34;;;;;;;51.57;23.41;;;;;;;;;;349803;150;864926;-59
2021/12/31 04:48:36;;;;;;;48.92;23.44;;;;;;;;;;346857;153;865484;-59
2021/12/31 04:49:37;;;;;;;45.59;23.57;;;;;;;;;;350579;149;866134;-60
2021/12/31 04:50:39;;;;;;;50.34;24.77;;;;;;;;;;354309;150;864934;-59
2021/12/31 04:51:41;;;;;;;44.26;21.06;;;;;;;;;;353297;150;865195;-57
2021/12/31 04:52:42;;;;;;;48.38;22.86;;;;;;;;;;350758;149;861349;-60
2021/12/31 04:53:44;;;;;;;44.98;21.66;;;;;;;;;;353450;150;859040;-60
2021/12/31 04:54:45;;;;;;;46.71;22.54;;;;;;;;;;350683;150;859553;-59
2021/12/31 04:55:47;;;;;;;48.14;22.86;;;;;;;;;;348999;154;858649;-59
2021/12/31 04:56:52;;;;;;;45.81;23.72;;;;;;;;;;350864;149;866335;-60
2021/12/31 04:57:52;;;;;;;45.36;21.60;;;;;;;;;;351858;149;858081;-59
2021/12/31 04:58:53;;;;;;;47.39;21.36;;;;;;;;;;352761;149;857105;-58
2021/12/31 04:59:55;;;;;;;48.62;24.36;;;;;;;;;;357031;150;865533;-58
2021/12/31 05:00:56;;;;;;;44.89;21.78;;;;;;;;;;353456;150;857387;-59
2021/12/31 05:01:58;;;;;;;52.26;24.33;;;;;;;;;;350108;150;864940;-60
2021/12/31 05:03:09;;;;;;;46.73;23.43;;;;;;;;;;353516;150;857408;-58
2021/12/31 05:04:11;;;;;;;48.11;21.98;;;;;;;;;;352509;149;857324;-59
2021/12/31 05:05:12;;;;;;;49.06;23.39;;;;;;;;;;350907;150;859866;-58
2021/12/31 05:06:15;;;;;;;44.86;22.39;;;;;;;;;;350832;150;865015;-58
2021/12/31 05:07:17;;;;;;;48.14;23.33;;;;;;;;;;352312;149;857284;-59
2021/12/31 05:08:19;;;;;;;50.79;25.16;;;;;;;;;;351352;150;857573;-58
2021/12/31 05:09:21;;;;;;;45.79;22.85;;;;;;;;;;351987;150;866131;-60
2021/12/31 05:10:22;;;;;;;45.33;22.37;;;;;;;;;;350493;150;857684;-60
2021/12/31 05:11:24;;;;;;;50.74;24.06;;;;;;;;;;351798;149;857142;-60
2021/12/31 05:12:29;;;;;;;45.00;22.24;;;;;;;;;;350633;150;861037;-61
2021/12/31 05:13:29;;;;;;;48.76;23.08;;;;;;;;;;349917;149;865349;-61
2021/12/31 05:14:31;;;;;;;44.47;22.30;;;;;;;;;;351230;150;856265;-61
2021/12/31 05:15:36;;;;;;;45.76;23.18;;;;;;;;;;351841;150;866136;-60
2021/12/31 05:16:36;;;;;;;48.84;23.29;;;;;;;;;;347160;153;865837;-60
2021/12/31 05:17:38;;;;;;;47.73;24.35;;;;;;;;;;349809;150;864049;-59
2021/12/31 05:18:39;;;;;;;46.13;22.71;;;;;;;;;;352734;150;858006;-60
2021/12/31 05:19:43;;;;;;;48.54;23.39;;;;;;;;;;353242;150;857607;-60
2021/12/31 05:20:45;;;;;;;50.27;24.39;;;;;;;;;;352909;150;865023;-59
2021/12/31 05:21:46;;;;;;;46.83;22.41;;;;;;;;;;349988;150;865117;-62
2021/12/31 05:22:48;;;;;;;48.11;23.81;;;;;;;;;;351754;150;858596;-61
2021/12/31 05:23:50;;;;;;;51.18;22.94;;;;;;;;;;348727;153;861462;-58
2021/12/31 05:24:51;;;;;;;49.96;24.24;;;;;;;;;;350549;150;864977;-59
2021/12/31 05:25:53;;;;;;;44.96;21.19;;;;;;;;;;352074;150;862492;-59
2021/12/31 05:26:54;;;;;;;51.23;24.52;;;;;;;;;;353761;150;857392;-58
2021/12/31 05:27:56;;;;;;;46.75;22.69;;;;;;;;;;350661;152;862484;-58
2021/12/31 05:28:57;;;;;;;46.78;21.90;;;;;;;;;;350430;149;865814;-57
2021/12/31 05:29:59;;;;;;;48.65;22.84;;;;;;;;;;352297;150;858339;-58
2021/12/31 05:31:01;;;;;;;45.26;21.56;;;;;;;;;;350000;150;866729;-60
2021/12/31 05:32:02;;;;;;;42.91;20.28;;;;;;;;;;350522;150;859224;-58
2021/12/31 05:33:04;;;;;;;47.85;21.00;;;;;;;;;;345113;153;860950;-58
2021/12/31 05:34:06;;;;;;;48.55;23.49;;;;;;;;;;337032;158;857376;-59
2021/12/31 05:35:08;;;;;;;45.91;22.04;;;;;;;;;;351451;149;859963;-65
2021/12/31 05:36:10;;;;;;;44.46;21.13;;;;;;;;;;350203;149;858937;-63
2021/12/31 05:37:12;;;;;;;48.77;23.31;;;;;;;;;;348946;150;857507;-63
2021/12/31 05:38:13;;;;;;;45.68;23.61;;;;;;;;;;358170;150;864969;-65
2021/12/31 05:39:15;;;;;;;50.73;24.29;;;;;;;;;;352169;149;859318;-63
2021/12/31 05:40:18;;;;;;;49.24;23.47;;;;;;;;;;351800;150;857420;-59
2021/12/31 05:41:21;;;;;;;49.71;23.81;;;;;;;;;;351738;149;857436;-57
2021/12/31 05:42:23;;;;;;;59.46;25.26;;;;;;;;;;349962;149;856824;-60
2021/12/31 05:43:24;;;;;;;52.24;25.04;;;;;;;;;;351724;150;857228;-60
2021/12/31 05:44:26;;;;;;;50.93;23.51;;;;;;;;;;352898;150;860069;-60
2021/12/31 05:45:28;;;;;;;46.11;23.08;;;;;;;;;;357157;150;859343;-60
2021/12/31 05:46:29;;;;;;;50.19;25.39;;;;;;;;;;350347;150;864094;-60
2021/12/31 05:47:31;;;;;;;51.91;26.33;;;;;;;;;;353128;150;864824;-60
2021/12/31 05:48:32;;;;;;;55.56;25.41;;;;;;;;;;357048;150;859148;-61
2021/12/31 05:49:34;;;;;;;50.69;24.66;;;;;;;;;;352915;149;859592;-60
2021/12/31 05:50:35;;;;;;;54.92;24.64;;;;;;;;;;351400;150;865060;-61
2021/12/31 05:51:37;;;;;;;53.09;26.36;;;;;;;;;;350319;150;858910;-60
2021/12/31 05:52:38;;;;;;;54.81;25.85;;;;;;;;;;352761;150;860111;-58
2021/12/31 05:53:40;;;;;;;46.75;20.95;;;;;;;;;;350913;150;857478;-59
2021/12/31 05:54:41;;;;;;;52.81;25.11;;;;;;;;;;352972;150;861824;-59
2021/12/31 05:55:43;;;;;;;53.17;26.89;;;;;;;;;;352054;149;857249;-59
2021/12/31 05:56:44;;;;;;;51.19;25.10;;;;;;;;;;347591;150;857341;-59
2021/12/31 05:57:46;;;;;;;50.74;25.02;;;;;;;;;;353818;150;865962;-59